EST,Max TemperatureF,Mean TemperatureF,Min TemperatureF,Max Dew PointF,MeanDew PointF,Min DewpointF,Max Humidity, Mean Humidity, Min Humidity, Max Sea Level PressureIn, Mean Sea Level PressureIn, Min Sea Level PressureIn, Max VisibilityMiles, Mean VisibilityMiles, Min VisibilityMiles, Max Wind SpeedMPH, Mean Wind SpeedMPH, Max Gust SpeedMPH,PrecipitationIn, CloudCover, Events, WindDirDegrees
2014-2-1,29,20,12,27,18,10,100,82,53,30.29,30.13,29.86,15,9,1,10,6,,0.39,6,Snow,36
2014-2-2,30,26,21,27,23,16,100,88,71,30.17,29.93,29.81,15,8,1,15,6,18,0.20,7,Snow,278
2014-2-3,19,14,5,14,6,1,85,68,43,30.36,30.29,30.20,15,15,15,9,6,,0.00,2,,357
2014-2-4,21,11,1,10,6,0,92,76,47,30.49,30.42,30.36,15,11,1,15,4,,0.00,7,Snow,227
2014-2-5,17,14,6,12,9,-2,93,79,62,30.37,30.10,29.92,15,7,1,22,9,26,0.16,7,Snow,18
2014-2-6,14,5,-4,9,0,-8,85,71,54,30.33,30.22,30.12,15,13,2,18,8,18,0.02,5,Snow,214
2014-2-7,18,13,8,11,8,3,86,74,51,30.17,30.12,30.10,15,12,1,29,15,36,0.00,7,Snow,233
2014-2-8,21,15,9,10,6,1,73,64,46,30.24,30.19,30.16,15,15,15,22,16,26,0.00,6,Snow,241
2014-2-9,19,14,9,14,10,5,93,79,60,30.18,30.10,30.01,15,11,2,7,5,,0.04,8,Snow,357
2014-2-10,19,12,5,12,6,3,93,75,36,30.22,30.09,30.01,15,11,2,17,6,,0.02,5,Snow,264
2014-2-11,12,6,0,1,-5,-9,73,59,36,30.53,30.37,30.23,15,15,15,15,8,,0.00,3,,276
2014-2-12,14,2,-9,0,-5,-13,85,67,36,30.60,30.49,30.28,15,12,0,8,4,,0.00,3,Fog,170
2014-2-13,20,10,-1,18,5,-6,93,73,51,30.27,29.98,29.50,15,10,1,28,11,36,0.08,7,Snow,16
2014-2-14,28,23,18,25,21,18,100,86,61,29.67,29.34,29.19,15,4,0,31,19,41,0.28,8,Snow,306
2014-2-15,21,18,14,18,13,10,93,76,56,29.86,29.81,29.68,15,14,6,13,7,,0.00,8,Snow,359
2014-2-16,14,8,3,9,1,-6,85,66,43,30.10,29.89,29.79,15,14,8,22,12,29,0.00,2,Snow,263
2014-2-17,14,7,0,-2,-6,-10,61,53,37,30.43,30.35,30.13,15,15,15,16,9,,0.00,0,,234
2014-2-18,25,14,3,23,8,-6,93,79,40,30.32,30.06,29.98,15,8,1,18,11,17,0.04,7,Snow,34
2014-2-19,34,26,17,28,23,18,86,79,68,29.99,29.79,29.64,15,14,6,18,8,23,0.00,8,Snow,134
2014-2-20,37,30,23,28,23,18,81,73,49,30.13,30.07,29.87,15,14,8,18,10,24,0.00,4,,231
2014-2-21,39,34,30,37,32,27,93,87,70,30.08,29.77,29.59,15,10,3,23,12,30,0.43,7,Rain-Snow,120
2014-2-22,43,38,30,28,22,18,75,55,37,29.85,29.71,29.63,15,15,15,37,20,50,0.00,2,,226
2014-2-23,34,30,26,21,17,14,69,56,35,29.91,29.85,29.78,15,15,15,22,15,30,0.00,2,,236
2014-2-24,19,17,14,12,7,0,79,60,39,29.96,29.84,29.80,15,12,1,25,17,36,0.01,6,Snow,265
2014-2-25,15,12,8,5,3,0,79,63,47,29.99,29.95,29.91,15,14,7,20,11,25,0.00,6,Snow,258
2014-2-26,14,11,8,9,5,-4,85,73,43,29.88,29.79,29.71,15,9,0,30,10,39,0.04,6,Snow,195
2014-2-27,19,12,5,10,2,-6,85,63,40,29.87,29.66,29.53,15,12,2,24,13,31,0.02,8,Snow,188
2014-2-28,10,5,0,3,-7,-13,79,56,22,30.42,30.25,29.88,15,15,15,22,17,24,0.00,2,Snow,242